createdAt,value
2017-08-31T00:02:02.711Z,16.10
2017-08-31T00:04:31.074Z,16.60
2017-08-31T00:06:58.681Z,15.23
2017-08-31T00:09:26.254Z,16.00
2017-08-31T00:11:53.862Z,14.80
2017-08-31T00:14:21.499Z,15.90
2017-08-31T00:16:49.127Z,15.40
2017-08-31T00:19:16.711Z,15.53
2017-08-31T00:21:44.562Z,14.03
2017-08-31T00:24:12.179Z,15.40
2017-08-31T00:26:39.807Z,15.17
2017-08-31T00:29:07.465Z,16.37
2017-08-31T00:31:35.113Z,16.57
2017-08-31T00:34:02.729Z,16.97
2017-08-31T00:36:30.346Z,15.97
2017-08-31T00:38:57.947Z,17.93
2017-08-31T00:41:25.617Z,17.13
2017-08-31T00:43:53.214Z,17.27
2017-08-31T00:46:20.886Z,14.30
2017-08-31T00:48:48.484Z,14.23
2017-08-31T00:51:16.116Z,14.27
2017-08-31T00:53:43.784Z,13.47
2017-08-31T00:56:11.477Z,13.50
2017-08-31T00:58:39.122Z,13.70
2017-08-31T01:01:06.761Z,12.93
2017-08-31T01:03:34.385Z,12.13
2017-08-31T01:06:02.025Z,13.10
2017-08-31T01:08:29.647Z,10.47
2017-08-31T01:10:57.264Z,9.17
2017-08-31T01:13:24.868Z,8.33
2017-08-31T01:15:52.502Z,7.70
2017-08-31T01:18:20.162Z,6.67
2017-08-31T01:20:47.761Z,6.57
2017-08-31T01:23:15.395Z,7.77
2017-08-31T01:25:43.066Z,6.97
2017-08-31T01:28:10.743Z,6.70
2017-08-31T01:30:38.363Z,6.90
2017-08-31T01:33:06.038Z,8.00
2017-08-31T01:35:33.763Z,8.70
2017-08-31T01:38:01.437Z,9.03
2017-08-31T01:40:29.082Z,8.33
2017-08-31T01:42:56.908Z,7.00
2017-08-31T01:45:24.586Z,7.37
2017-08-31T01:47:52.213Z,7.73
2017-08-31T01:50:19.795Z,8.00
2017-08-31T01:52:47.402Z,8.50
2017-08-31T01:55:15.015Z,8.20
2017-08-31T01:57:42.617Z,7.47
2017-08-31T02:03:03.478Z,7.87
2017-08-31T02:05:31.056Z,7.67
2017-08-31T02:07:58.656Z,7.70
2017-08-31T02:10:26.302Z,8.27
2017-08-31T02:12:53.977Z,8.20
2017-08-31T02:15:21.593Z,7.83
2017-08-31T02:17:49.232Z,8.83
2017-08-31T02:20:16.837Z,8.50
2017-08-31T02:22:44.443Z,8.30
2017-08-31T02:25:12.059Z,9.10
2017-08-31T02:27:40.532Z,8.73
2017-08-31T02:30:08.148Z,6.60
2017-08-31T02:32:35.783Z,6.73
2017-08-31T02:35:03.453Z,7.00
2017-08-31T02:37:31.067Z,5.97
2017-08-31T02:39:58.672Z,6.37
2017-08-31T02:42:26.318Z,5.70
2017-08-31T02:44:53.993Z,5.67
2017-08-31T02:47:21.609Z,5.17
2017-08-31T02:49:49.220Z,5.90
2017-08-31T02:52:16.882Z,5.40
2017-08-31T02:54:44.467Z,5.67
2017-08-31T02:57:12.067Z,5.13
2017-08-31T02:59:39.687Z,4.60
2017-08-31T03:02:07.376Z,5.10
2017-08-31T03:04:34.964Z,4.87
2017-08-31T03:07:02.637Z,4.70
2017-08-31T03:09:30.250Z,5.50
2017-08-31T03:12:00.864Z,5.23
2017-08-31T03:14:28.463Z,5.10
2017-08-31T03:16:56.100Z,4.60
2017-08-31T03:19:23.766Z,4.80
2017-08-31T03:21:51.458Z,4.40
2017-08-31T03:24:19.073Z,4.73
2017-08-31T03:26:46.715Z,4.90
2017-08-31T03:29:14.698Z,5.30
2017-08-31T03:31:42.457Z,5.10
2017-08-31T03:34:10.107Z,5.93
2017-08-31T03:36:37.764Z,4.77
2017-08-31T03:39:06.176Z,4.40
2017-08-31T03:41:33.834Z,4.67
2017-08-31T03:44:01.467Z,4.20
